createdAt,value
2023-04-20T00:01:10.811Z,5.70
2023-04-20T00:03:38.646Z,9.45
2023-04-20T00:06:06.845Z,6.38
2023-04-20T00:08:34.565Z,7.30
2023-04-20T00:11:02.257Z,4.88
2023-04-20T00:13:29.928Z,6.68
2023-04-20T00:15:57.512Z,5.82
2023-04-20T00:18:26.538Z,4.88
2023-04-20T00:20:54.378Z,5.25
2023-04-20T00:23:21.950Z,5.63
2023-04-20T00:25:51.619Z,5.35
2023-04-20T00:28:19.241Z,5.22
2023-04-20T00:30:46.888Z,9.18
2023-04-20T00:33:14.581Z,8.85
2023-04-20T00:35:43.525Z,6.32
2023-04-20T00:38:11.369Z,6.03
2023-04-20T00:40:39.019Z,7.10
2023-04-20T00:43:12.831Z,9.82
2023-04-20T00:45:43.128Z,11.20
2023-04-20T00:48:10.878Z,6.88
2023-04-20T00:50:39.400Z,9.77
2023-04-20T00:53:09.084Z,7.50
2023-04-20T00:55:38.564Z,6.63
2023-04-20T00:58:06.768Z,8.38
2023-04-20T01:00:35.095Z,8.73
2023-04-20T01:03:02.872Z,7.53
2023-04-20T01:05:30.907Z,10.80
2023-04-20T01:07:58.488Z,5.50
2023-04-20T01:10:27.420Z,11.10
2023-04-20T01:12:55.025Z,6.13
2023-04-20T01:15:22.691Z,9.05
2023-04-20T01:17:50.369Z,5.40
2023-04-20T01:20:17.961Z,10.23
2023-04-20T01:22:48.604Z,5.50
2023-04-20T01:25:16.990Z,6.75
2023-04-20T01:27:45.038Z,8.57
2023-04-20T01:30:13.545Z,8.85
2023-04-20T01:32:41.589Z,6.20
2023-04-20T01:35:10.453Z,9.05
2023-04-20T01:37:38.170Z,4.43
2023-04-20T01:40:10.210Z,6.75
2023-04-20T01:42:37.978Z,6.20
2023-04-20T01:45:06.207Z,6.38
2023-04-20T01:47:36.515Z,6.00
2023-04-20T01:50:04.615Z,6.47
2023-04-20T02:00:15.733Z,4.47
2023-04-20T02:02:43.566Z,4.72
2023-04-20T02:05:11.608Z,6.30
2023-04-20T02:07:39.277Z,6.88
2023-04-20T02:10:07.886Z,5.75
2023-04-20T02:12:35.521Z,6.70
2023-04-20T02:15:04.255Z,7.63
2023-04-20T02:17:33.938Z,6.38
2023-04-20T02:20:01.541Z,5.50
2023-04-20T02:22:29.197Z,6.22
2023-04-20T02:24:56.820Z,7.63
2023-04-20T02:27:24.366Z,8.98
2023-04-20T02:29:51.940Z,8.52
2023-04-20T02:32:19.884Z,7.50
2023-04-20T02:34:48.799Z,8.88
2023-04-20T02:37:16.450Z,8.90
2023-04-20T02:39:44.149Z,9.23
2023-04-20T02:42:12.325Z,7.88
2023-04-20T02:44:39.911Z,8.88
2023-04-20T02:47:07.469Z,7.68
2023-04-20T02:49:35.619Z,6.20
2023-04-20T02:52:05.075Z,9.73
2023-04-20T02:54:32.642Z,5.05
2023-04-20T02:57:00.784Z,10.45
2023-04-20T02:59:28.363Z,8.00
2023-04-20T03:01:56.042Z,9.80
2023-04-20T03:04:23.750Z,8.82
2023-04-20T03:06:51.471Z,6.95
2023-04-20T03:09:20.406Z,8.52
2023-04-20T03:11:47.994Z,10.15
2023-04-20T03:14:15.576Z,7.45
2023-04-20T03:16:43.489Z,7.55
2023-04-20T03:19:11.240Z,9.02
2023-04-20T03:21:38.822Z,7.60
2023-04-20T03:24:07.087Z,7.53
2023-04-20T03:26:36.340Z,5.55
2023-04-20T03:29:03.971Z,10.43
2023-04-20T03:31:31.578Z,6.70
2023-04-20T03:33:59.219Z,6.32
2023-04-20T03:36:28.208Z,8.27
2023-04-20T03:38:55.936Z,6.97
2023-04-20T03:41:23.593Z,6.35
2023-04-20T03:43:52.588Z,7.00
2023-04-20T03:46:22.023Z,8.27
2023-04-20T03:48:50.868Z,7.78
2023-04-20T03:51:18.535Z,7.22
2023-04-20T03:53:46.203Z,8.35
2023-04-20T03:56:13.886Z,6.32
2023-04-20T03:58:41.484Z,7.22
2023-04-20T04:01:13.170Z,10.95
2023-04-20T04:03:40.935Z,7.22
2023-04-20T04:06:08.800Z,6.90
2023-04-20T04:08:36.380Z,8.43
2023-04-20T04:11:03.971Z,9.18
2023-04-20T04:13:33.811Z,8.50
2023-04-20T04:16:02.243Z,9.43
2023-04-20T04:18:33.901Z,9.52
2023-04-20T04:21:01.603Z,12.07
2023-04-20T04:23:29.347Z,7.03
2023-04-20T04:25:58.728Z,10.02
2023-04-20T04:28:26.736Z,8.55
2023-04-20T04:30:54.348Z,7.53
2023-04-20T04:33:22.074Z,10.48
2023-04-20T04:35:51.010Z,9.38
2023-04-20T04:38:18.737Z,8.90
2023-04-20T04:40:46.781Z,10.80
2023-04-20T04:43:14.583Z,9.25
2023-04-20T04:45:42.512Z,11.38
2023-04-20T04:48:12.185Z,8.43
2023-04-20T04:50:40.330Z,7.93
2023-04-20T04:53:09.267Z,7.65
2023-04-20T04:55:36.879Z,9.93
2023-04-20T04:58:04.644Z,8.43
2023-04-20T05:00:32.452Z,10.75
2023-04-20T05:03:00.241Z,9.77
2023-04-20T05:05:28.280Z,9.68
2023-04-20T05:07:55.952Z,8.48
2023-04-20T05:10:24.970Z,8.27
2023-04-20T05:12:53.219Z,9.88
2023-04-20T05:15:20.839Z,8.63
2023-04-20T05:17:49.694Z,11.43
2023-04-20T05:20:19.056Z,10.95
2023-04-20T05:22:46.675Z,7.45
2023-04-20T05:25:14.424Z,8.27
2023-04-20T05:27:43.371Z,14.48
2023-04-20T05:30:19.619Z,7.20
2023-04-20T05:32:51.390Z,14.40
2023-04-20T05:35:19.818Z,10.60
2023-04-20T05:37:48.283Z,6.82
2023-04-20T05:40:16.136Z,13.93
2023-04-20T05:42:45.109Z,8.05
2023-04-20T05:45:12.893Z,11.02
2023-04-20T05:47:40.571Z,12.20
2023-04-20T05:50:11.274Z,10.25
2023-04-20T05:52:38.923Z,8.15
2023-04-20T05:55:07.256Z,7.72
2023-04-20T05:57:34.942Z,8.20
2023-04-20T06:00:04.915Z,10.27
2023-04-20T06:02:32.599Z,6.90
2023-04-20T06:05:00.936Z,6.88
2023-04-20T06:07:28.706Z,11.38
2023-04-20T06:09:57.250Z,9.82
2023-04-20T06:12:26.286Z,10.45
2023-04-20T06:14:54.439Z,12.98
2023-04-20T06:17:23.694Z,11.00
2023-04-20T06:19:51.490Z,12.23
2023-04-20T06:22:19.589Z,8.93
2023-04-20T06:24:47.328Z,8.60
2023-04-20T06:27:16.047Z,9.65
2023-04-20T06:29:43.664Z,12.00
2023-04-20T06:32:11.293Z,10.50
2023-04-20T06:34:40.316Z,18.48
2023-04-20T06:37:08.427Z,7.65
2023-04-20T06:39:36.644Z,9.35
2023-04-20T06:42:04.488Z,11.25
2023-04-20T06:44:32.083Z,11.13
2023-04-20T06:46:59.787Z,10.23
2023-04-20T06:49:27.517Z,13.57
2023-04-20T06:51:56.524Z,9.00
2023-04-20T06:54:24.111Z,8.68
2023-04-20T06:56:51.722Z,10.07
2023-04-20T06:59:20.386Z,12.15
2023-04-20T07:01:48.301Z,10.02
2023-04-20T07:04:16.303Z,11.13
2023-04-20T07:06:43.913Z,11.43
2023-04-20T07:09:12.796Z,9.95
2023-04-20T07:11:40.387Z,9.05
2023-04-20T07:14:07.945Z,12.75
2023-04-20T07:16:35.874Z,10.27
2023-04-20T07:19:03.532Z,8.38
2023-04-20T07:21:31.644Z,9.75
2023-04-20T07:23:59.349Z,8.85
2023-04-20T07:26:28.447Z,8.93
2023-04-20T07:28:56.017Z,9.70
2023-04-20T07:31:23.901Z,9.80
2023-04-20T07:33:51.555Z,11.85
2023-04-20T07:36:20.107Z,10.68
2023-04-20T07:38:47.731Z,10.30
2023-04-20T07:41:15.881Z,9.43
2023-04-20T07:43:45.520Z,11.63
2023-04-20T07:46:20.894Z,12.27
2023-04-20T07:48:48.913Z,9.25
2023-04-20T07:51:16.623Z,8.93
2023-04-20T07:53:44.905Z,12.45
2023-04-20T07:56:12.632Z,10.00
2023-04-20T07:58:40.824Z,8.30
2023-04-20T08:01:09.802Z,15.68
2023-04-20T08:03:37.885Z,13.10
2023-04-20T08:06:06.301Z,9.65
2023-04-20T08:08:34.194Z,11.10
2023-04-20T08:11:01.756Z,14.73
2023-04-20T08:13:29.448Z,8.38
2023-04-20T08:15:57.119Z,13.15
2023-04-20T08:18:26.068Z,11.20
2023-04-20T08:20:53.774Z,11.45
2023-04-20T08:23:27.457Z,9.63
2023-04-20T08:25:55.184Z,10.07
2023-04-20T08:28:33.305Z,13.57
2023-04-20T08:31:01.830Z,10.27
2023-04-20T08:33:31.061Z,10.07
2023-04-20T08:35:58.652Z,9.07
2023-04-20T08:38:33.746Z,11.18
2023-04-20T08:41:02.324Z,11.80
2023-04-20T08:43:30.011Z,10.13
2023-04-20T08:45:59.446Z,10.20
2023-04-20T08:48:28.855Z,8.00
2023-04-20T08:50:57.829Z,9.50
2023-04-20T08:53:25.428Z,7.45
2023-04-20T08:55:53.084Z,7.88
2023-04-20T08:58:21.015Z,10.85
2023-04-20T09:00:49.560Z,10.88
2023-04-20T09:03:27.597Z,10.15
2023-04-20T09:06:00.405Z,14.20
2023-04-20T09:08:35.913Z,9.90
2023-04-20T09:11:03.552Z,9.75
2023-04-20T09:13:31.155Z,12.43
2023-04-20T09:15:58.876Z,9.90
2023-04-20T09:18:26.489Z,11.30
2023-04-20T09:20:54.173Z,11.35
2023-04-20T09:23:23.153Z,9.77
2023-04-20T09:25:53.420Z,8.00
2023-04-20T09:28:21.706Z,8.57
2023-04-20T09:30:51.559Z,9.15
2023-04-20T09:33:19.528Z,10.60
2023-04-20T09:35:47.337Z,8.13
2023-04-20T09:38:18.101Z,7.90
2023-04-20T09:40:47.095Z,8.70
2023-04-20T09:43:19.514Z,7.43
2023-04-20T09:45:47.237Z,8.05
2023-04-20T09:48:18.754Z,7.82
2023-04-20T09:50:49.624Z,9.00
2023-04-20T09:53:19.812Z,10.55
2023-04-20T09:55:49.871Z,7.95
2023-04-20T09:58:19.173Z,7.88
2023-04-20T10:00:46.978Z,7.47
2023-04-20T10:03:17.908Z,8.02
2023-04-20T10:05:45.664Z,6.22
2023-04-20T10:08:13.359Z,6.57
2023-04-20T10:10:45.596Z,7.45
2023-04-20T10:13:16.011Z,8.10
2023-04-20T10:15:43.972Z,7.35
2023-04-20T10:18:19.924Z,11.95
2023-04-20T10:20:47.952Z,8.15
2023-04-20T10:23:18.381Z,9.20
2023-04-20T10:25:56.244Z,7.28
2023-04-20T10:28:26.222Z,7.25
2023-04-20T10:30:57.083Z,7.32
2023-04-20T10:33:24.706Z,8.75
2023-04-20T10:35:55.729Z,7.90
2023-04-20T10:38:31.106Z,6.22
2023-04-20T10:40:59.103Z,9.60
2023-04-20T10:43:28.064Z,11.07
2023-04-20T10:45:55.718Z,10.60
2023-04-20T10:48:23.471Z,8.02
2023-04-20T10:50:51.100Z,9.30
2023-04-20T10:53:20.364Z,10.38
2023-04-20T10:55:51.468Z,10.20
2023-04-20T10:58:23.292Z,10.55
2023-04-20T11:01:02.979Z,10.10
2023-04-20T11:03:32.259Z,7.70
2023-04-20T11:06:01.343Z,11.95
2023-04-20T11:08:40.134Z,9.07
2023-04-20T11:11:18.954Z,8.25
2023-04-20T11:13:46.722Z,7.40
2023-04-20T11:16:19.755Z,8.50
2023-04-20T11:18:51.341Z,9.05
2023-04-20T11:21:19.318Z,7.53
2023-04-20T11:23:47.307Z,8.40
2023-04-20T11:26:15.346Z,9.70
2023-04-20T11:28:56.043Z,10.60
2023-04-20T11:31:26.740Z,7.95
2023-04-20T11:33:54.630Z,9.55
2023-04-20T11:36:24.078Z,11.50
2023-04-20T11:38:52.073Z,7.72
2023-04-20T11:41:19.846Z,8.43
2023-04-20T11:43:48.936Z,6.38
2023-04-20T11:46:18.043Z,6.75
2023-04-20T11:48:47.966Z,7.50
2023-04-20T11:51:16.214Z,6.97
2023-04-20T11:53:43.984Z,7.63
2023-04-20T11:56:11.628Z,9.10
2023-04-20T11:58:39.238Z,7.55
2023-04-20T12:01:07.069Z,8.68
2023-04-20T12:03:34.968Z,6.07
2023-04-20T12:06:04.022Z,7.70
2023-04-20T12:08:32.125Z,6.50
2023-04-20T12:10:59.715Z,8.73
2023-04-20T12:13:27.423Z,7.65
2023-04-20T12:15:55.041Z,7.70
2023-04-20T12:18:23.193Z,6.28
2023-04-20T12:20:51.523Z,7.03
2023-04-20T12:23:20.618Z,8.70
2023-04-20T12:25:49.283Z,6.55
2023-04-20T12:28:17.099Z,8.38
2023-04-20T12:30:44.894Z,7.05
2023-04-20T12:33:12.625Z,7.13
2023-04-20T12:35:40.454Z,6.65
2023-04-20T12:38:08.037Z,7.65
2023-04-20T12:40:37.133Z,7.97
2023-04-20T12:43:04.892Z,7.22
2023-04-20T12:45:32.565Z,7.28
2023-04-20T12:48:00.859Z,6.85
2023-04-20T12:50:30.142Z,6.28
2023-04-20T12:52:58.491Z,7.90
2023-04-20T12:55:27.093Z,7.85
2023-04-20T12:57:56.039Z,7.47
2023-04-20T13:00:23.779Z,7.28
2023-04-20T13:02:51.852Z,7.55
2023-04-20T13:05:19.866Z,6.22
2023-04-20T13:07:47.463Z,7.22
2023-04-20T13:10:15.421Z,6.22
2023-04-20T13:12:43.092Z,7.32
2023-04-20T13:15:13.037Z,6.97
2023-04-20T13:17:41.262Z,6.75
2023-04-20T13:20:09.854Z,6.43
2023-04-20T13:22:50.483Z,9.20
2023-04-20T13:25:25.209Z,11.18
2023-04-20T13:27:54.695Z,7.45
2023-04-20T13:30:24.796Z,7.40
2023-04-20T13:32:52.683Z,8.07
2023-04-20T13:35:20.777Z,7.18
2023-04-20T13:37:48.733Z,9.30
2023-04-20T13:40:16.536Z,9.90
2023-04-20T13:42:44.156Z,7.50
2023-04-20T13:45:13.799Z,7.03
2023-04-20T13:47:42.814Z,9.43
2023-04-20T13:50:11.297Z,9.63
2023-04-20T13:52:39.196Z,8.57
2023-04-20T13:55:07.429Z,10.02
2023-04-20T13:57:35.151Z,10.30
2023-04-20T14:00:03.974Z,11.00
2023-04-20T14:02:31.697Z,7.97
2023-04-20T14:05:00.880Z,8.05
2023-04-20T14:07:28.543Z,8.82
2023-04-20T14:09:56.513Z,10.68
2023-04-20T14:12:24.342Z,8.70
2023-04-20T14:14:52.116Z,11.38
2023-04-20T14:17:19.981Z,10.32
2023-04-20T14:19:47.698Z,9.02
2023-04-20T14:22:16.914Z,7.40
2023-04-20T14:24:45.599Z,9.45
2023-04-20T14:27:13.373Z,8.65
2023-04-20T14:29:41.198Z,9.07
2023-04-20T14:32:09.136Z,10.63
2023-04-20T14:34:37.908Z,10.75
2023-04-20T14:37:05.643Z,9.88
2023-04-20T14:39:34.657Z,10.23
2023-04-20T14:42:02.286Z,10.43
2023-04-20T14:44:29.863Z,7.55
2023-04-20T14:46:57.980Z,7.53
2023-04-20T14:49:25.806Z,9.98
2023-04-20T14:51:53.504Z,8.75
2023-04-20T14:54:21.297Z,11.35
2023-04-20T14:56:50.630Z,9.45
2023-04-20T14:59:20.530Z,11.98
2023-04-20T15:02:01.171Z,10.30
2023-04-20T15:04:32.296Z,13.73
2023-04-20T15:07:00.351Z,12.02
2023-04-20T15:09:28.377Z,10.80
2023-04-20T15:11:59.035Z,9.98
2023-04-20T15:14:26.691Z,10.68
2023-04-20T15:16:54.988Z,8.85
2023-04-20T15:19:23.003Z,9.30
2023-04-20T15:21:50.846Z,10.38
2023-04-20T15:24:18.771Z,9.50
2023-04-20T15:26:46.601Z,7.32
2023-04-20T15:29:15.717Z,6.65
2023-04-20T15:31:45.386Z,8.95
2023-04-20T15:34:15.233Z,7.90
2023-04-20T15:36:43.481Z,6.88
2023-04-20T15:39:11.709Z,6.07
2023-04-20T15:41:39.629Z,9.70
2023-04-20T15:44:07.449Z,8.90
2023-04-20T15:46:37.084Z,12.52
2023-04-20T15:49:05.053Z,10.20
2023-04-20T15:51:32.771Z,9.77
2023-04-20T15:54:01.460Z,10.07
2023-04-20T15:56:29.914Z,7.95
2023-04-20T15:58:57.661Z,10.50
2023-04-20T16:01:25.289Z,9.10
2023-04-20T16:03:54.756Z,10.73
2023-04-20T16:06:22.686Z,15.73
2023-04-20T16:08:53.822Z,13.50
2023-04-20T16:11:23.703Z,15.75
2023-04-20T16:13:53.599Z,14.63
2023-04-20T16:16:23.741Z,13.15
2023-04-20T16:18:52.062Z,14.07
2023-04-20T16:21:22.362Z,13.02
2023-04-20T16:23:52.613Z,11.30
2023-04-20T16:26:20.850Z,12.32
2023-04-20T16:28:49.491Z,14.32
2023-04-20T16:31:19.794Z,13.73
2023-04-20T16:33:47.799Z,15.75
2023-04-20T16:36:16.414Z,16.70
2023-04-20T16:38:45.648Z,14.93
2023-04-20T16:41:13.277Z,13.68
2023-04-20T16:43:42.411Z,15.80
2023-04-20T16:46:12.815Z,17.88
2023-04-20T16:48:40.772Z,16.48
2023-04-20T16:51:08.570Z,14.25
2023-04-20T16:53:36.539Z,16.20
2023-04-20T16:56:06.129Z,15.93
2023-04-20T16:58:33.859Z,15.32
2023-04-20T17:01:01.708Z,13.93
2023-04-20T17:03:30.262Z,15.70
2023-04-20T17:05:58.242Z,16.40
2023-04-20T17:08:27.368Z,16.05
2023-04-20T17:10:55.344Z,13.73
2023-04-20T17:13:24.479Z,13.15
2023-04-20T17:15:52.974Z,11.93
2023-04-20T17:18:21.573Z,12.45
2023-04-20T17:20:49.457Z,11.32
2023-04-20T17:23:17.816Z,12.50
2023-04-20T17:25:47.332Z,14.55
2023-04-20T17:28:15.603Z,15.48
2023-04-20T17:30:45.917Z,12.73
2023-04-20T17:33:14.220Z,11.82
2023-04-20T17:35:43.478Z,17.65
2023-04-20T17:38:11.720Z,11.73
2023-04-20T17:40:39.675Z,16.08
2023-04-20T17:43:07.522Z,11.80
2023-04-20T17:45:37.395Z,13.50
2023-04-20T17:48:07.853Z,15.50
2023-04-20T17:50:35.899Z,14.68
2023-04-20T17:53:07.077Z,18.70
2023-04-20T17:55:35.365Z,15.63
2023-04-20T17:58:03.068Z,14.63
2023-04-20T18:00:31.070Z,13.98
2023-04-20T18:02:59.555Z,13.23
2023-04-20T18:05:29.233Z,13.98
2023-04-20T18:07:57.128Z,10.65
2023-04-20T18:10:24.858Z,13.90
2023-04-20T18:12:53.729Z,12.77
2023-04-20T18:15:21.812Z,12.07
2023-04-20T18:17:50.599Z,12.63
2023-04-20T18:20:19.415Z,14.50
2023-04-20T18:22:50.264Z,12.77
2023-04-20T18:25:18.846Z,13.80
2023-04-20T18:27:46.925Z,17.75
2023-04-20T18:30:15.038Z,12.20
2023-04-20T18:32:42.877Z,13.00
2023-04-20T18:35:11.896Z,13.10
2023-04-20T18:37:40.878Z,14.00
2023-04-20T18:40:11.262Z,18.55
2023-04-20T18:42:38.894Z,13.05
2023-04-20T18:45:07.617Z,12.15
2023-04-20T18:47:35.549Z,12.68
2023-04-20T18:50:03.679Z,14.55
2023-04-20T18:52:33.486Z,13.85
2023-04-20T18:55:01.213Z,12.52
2023-04-20T18:57:30.381Z,15.82
2023-04-20T18:59:58.231Z,13.70
2023-04-20T19:02:26.285Z,15.50
2023-04-20T19:04:55.556Z,13.48
2023-04-20T19:07:24.991Z,13.63
2023-04-20T19:09:52.642Z,15.10
2023-04-20T19:12:21.165Z,12.25
2023-04-20T19:14:50.325Z,12.30
2023-04-20T19:17:18.202Z,13.48
2023-04-20T19:19:46.988Z,14.70
2023-04-20T19:22:14.677Z,13.80
2023-04-20T19:24:42.582Z,14.55
2023-04-20T19:27:14.001Z,13.23
2023-04-20T19:29:46.611Z,11.57
2023-04-20T19:32:15.924Z,12.80
2023-04-20T19:34:43.844Z,11.98
2023-04-20T19:37:11.919Z,15.95
2023-04-20T19:39:40.112Z,12.23
2023-04-20T19:42:07.756Z,14.07
2023-04-20T19:44:35.797Z,15.07
2023-04-20T19:47:04.092Z,13.02
2023-04-20T19:49:33.098Z,14.88
2023-04-20T19:52:00.828Z,12.93
2023-04-20T19:54:29.772Z,13.85
2023-04-20T19:56:57.671Z,14.25
2023-04-20T19:59:25.691Z,15.02
2023-04-20T20:01:53.437Z,15.10
2023-04-20T20:04:21.357Z,15.60
2023-04-20T20:06:51.077Z,15.95
2023-04-20T20:09:21.612Z,20.70
2023-04-20T20:11:53.499Z,20.48
2023-04-20T20:14:21.645Z,16.85
2023-04-20T20:16:49.226Z,18.50
2023-04-20T20:19:18.049Z,16.55
2023-04-20T20:21:46.065Z,16.13
2023-04-20T20:24:16.018Z,16.42
2023-04-20T20:26:43.654Z,16.80
2023-04-20T20:29:11.349Z,13.18
2023-04-20T20:31:39.029Z,18.33
2023-04-20T20:34:08.983Z,13.85
2023-04-20T20:36:37.094Z,15.48
2023-04-20T20:39:06.591Z,16.17
2023-04-20T20:41:35.610Z,13.65
2023-04-20T20:44:03.672Z,14.55
2023-04-20T20:46:32.045Z,16.75
2023-04-20T20:49:00.962Z,16.15
2023-04-20T20:51:29.108Z,15.80
2023-04-20T20:53:56.733Z,15.13
2023-04-20T20:56:24.482Z,13.98
2023-04-20T20:58:55.080Z,17.83
2023-04-20T21:01:22.763Z,19.73
2023-04-20T21:03:50.723Z,14.65
2023-04-20T21:06:18.454Z,14.32
2023-04-20T21:08:46.280Z,16.63
2023-04-20T21:11:13.932Z,16.17
2023-04-20T21:13:41.769Z,15.25
2023-04-20T21:16:11.005Z,16.08
2023-04-20T21:18:38.636Z,17.48
2023-04-20T21:21:06.686Z,15.43
2023-04-20T21:23:34.433Z,14.48
2023-04-20T21:26:02.000Z,17.80
2023-04-20T21:28:29.588Z,16.48
2023-04-20T21:30:57.210Z,20.27
2023-04-20T21:33:26.200Z,14.55
2023-04-20T21:35:53.844Z,15.65
2023-04-20T21:38:21.404Z,18.30
2023-04-20T21:40:49.245Z,16.73
2023-04-20T21:43:16.821Z,18.58
2023-04-20T21:45:45.576Z,16.77
2023-04-20T21:48:13.273Z,20.10
2023-04-20T21:50:42.230Z,15.48
2023-04-20T21:53:09.964Z,20.10
2023-04-20T21:55:37.569Z,18.02
2023-04-20T21:58:05.212Z,15.93
2023-04-20T22:00:34.976Z,18.58
2023-04-20T22:03:02.687Z,17.30
2023-04-20T22:05:30.652Z,24.50
2023-04-20T22:07:59.592Z,18.48
2023-04-20T22:10:27.541Z,16.80
2023-04-20T22:12:55.283Z,19.52
2023-04-20T22:15:23.422Z,17.20
2023-04-20T22:17:51.061Z,19.33
2023-04-20T22:20:19.810Z,19.60
2023-04-20T22:22:47.894Z,19.48
2023-04-20T22:25:16.879Z,19.40
2023-04-20T22:27:44.659Z,16.80
2023-04-20T22:30:13.019Z,18.52
2023-04-20T22:32:40.914Z,16.17
2023-04-20T22:35:09.456Z,18.00
2023-04-20T22:37:37.086Z,17.38
2023-04-20T22:40:07.475Z,19.35
2023-04-20T22:42:38.945Z,19.58
2023-04-20T22:45:09.512Z,15.70
2023-04-20T22:47:37.493Z,17.60
2023-04-20T22:50:06.669Z,18.48
2023-04-20T22:52:34.818Z,16.48
2023-04-20T22:55:02.543Z,17.00
2023-04-20T22:57:30.195Z,19.67
2023-04-20T22:59:59.157Z,16.55
2023-04-20T23:02:28.192Z,14.45
2023-04-20T23:04:55.849Z,22.55
2023-04-20T23:07:23.644Z,17.60
2023-04-20T23:09:51.427Z,18.65
2023-04-20T23:12:20.656Z,16.20
2023-04-20T23:14:48.307Z,20.20
2023-04-20T23:17:17.346Z,16.48
2023-04-20T23:19:44.952Z,18.02
2023-04-20T23:22:12.719Z,16.55
2023-04-20T23:24:40.416Z,19.25
2023-04-20T23:27:08.013Z,15.30
2023-04-20T23:29:35.859Z,17.02
2023-04-20T23:32:03.873Z,16.42
2023-04-20T23:34:33.199Z,18.80
2023-04-20T23:37:00.842Z,16.67
2023-04-20T23:39:28.503Z,15.13
2023-04-20T23:41:56.345Z,18.60
2023-04-20T23:44:24.036Z,17.63
2023-04-20T23:46:51.824Z,18.05
2023-04-20T23:49:19.653Z,14.27
2023-04-20T23:51:48.729Z,17.38
2023-04-20T23:54:16.774Z,13.50
2023-04-20T23:56:44.387Z,19.23
2023-04-20T23:59:11.996Z,17.15
